createdAt,value
2022-11-16T00:02:13.586Z,1.92
2022-11-16T00:04:41.601Z,2.08
2022-11-16T00:07:09.570Z,1.85
2022-11-16T00:09:37.663Z,1.95
2022-11-16T00:12:08.757Z,2.05
2022-11-16T00:14:36.676Z,1.17
2022-11-16T00:17:04.768Z,2.13
2022-11-16T00:19:32.382Z,1.60
2022-11-16T00:22:00.082Z,2.22
2022-11-16T00:24:27.446Z,2.70
2022-11-16T00:26:56.095Z,1.80
2022-11-16T00:29:26.444Z,1.85
2022-11-16T00:31:54.858Z,2.80
2022-11-16T00:34:24.428Z,2.65
2022-11-16T00:36:52.571Z,3.00
2022-11-16T00:39:20.827Z,1.52
2022-11-16T00:41:50.050Z,2.17
2022-11-16T00:44:18.810Z,1.48
2022-11-16T00:46:46.187Z,2.42
2022-11-16T00:49:13.588Z,2.58
2022-11-16T00:51:41.224Z,1.92
2022-11-16T00:54:09.921Z,1.90
2022-11-16T00:56:39.466Z,2.83
2022-11-16T00:59:07.735Z,1.80
2022-11-16T01:01:35.419Z,2.15
2022-11-16T01:04:03.122Z,2.33
2022-11-16T01:06:30.530Z,1.70
2022-11-16T01:08:58.094Z,1.83
2022-11-16T01:11:44.175Z,1.67
2022-11-16T01:14:12.008Z,2.25
2022-11-16T01:16:39.405Z,1.30
2022-11-16T01:19:07.792Z,1.92
2022-11-16T01:21:35.479Z,2.22
2022-11-16T01:24:04.093Z,1.33
2022-11-16T01:26:31.514Z,1.95
2022-11-16T01:28:59.778Z,1.77
2022-11-16T01:31:31.090Z,1.60
2022-11-16T01:33:59.911Z,1.52
2022-11-16T01:36:29.768Z,2.15
2022-11-16T01:38:59.609Z,3.08
2022-11-16T01:41:30.918Z,1.77
2022-11-16T01:44:06.895Z,2.17
2022-11-16T01:46:49.036Z,1.48
2022-11-16T01:49:23.912Z,2.20
2022-11-16T01:52:02.957Z,1.52
2022-11-16T01:54:41.646Z,1.67
2022-11-16T01:57:16.114Z,1.73
2022-11-16T01:59:57.714Z,2.30
2022-11-16T02:02:28.267Z,1.40
2022-11-16T02:04:58.236Z,1.48
2022-11-16T02:08:23.345Z,1.10
2022-11-16T02:10:54.242Z,1.95
2022-11-16T02:14:16.589Z,1.80
2022-11-16T02:17:10.916Z,3.00
2022-11-16T02:20:00.429Z,1.88
2022-11-16T02:23:21.221Z,2.53
2022-11-16T02:26:24.817Z,1.75
2022-11-16T02:29:20.775Z,1.50
2022-11-16T02:32:09.001Z,1.55
2022-11-16T02:34:52.953Z,1.95
2022-11-16T02:37:26.277Z,1.20
2022-11-16T02:39:59.665Z,1.95
2022-11-16T02:42:38.892Z,2.10
2022-11-16T02:45:12.224Z,1.70
2022-11-16T02:47:44.654Z,1.45
2022-11-16T02:50:19.588Z,1.35
2022-11-16T02:52:47.402Z,2.58
2022-11-16T02:55:15.178Z,1.98
2022-11-16T02:57:51.217Z,1.35
2022-11-16T03:00:51.972Z,1.20
2022-11-16T03:03:37.791Z,1.73
2022-11-16T03:06:19.152Z,1.67
2022-11-16T03:09:21.320Z,1.98
2022-11-16T03:12:00.827Z,1.73
2022-11-16T03:14:47.682Z,1.85
2022-11-16T03:17:29.773Z,2.10
2022-11-16T03:20:27.128Z,2.22
2022-11-16T03:23:01.638Z,1.45
2022-11-16T03:25:37.067Z,1.55
2022-11-16T03:28:38.390Z,1.83
2022-11-16T03:31:21.796Z,2.47
2022-11-16T03:33:57.702Z,3.08
2022-11-16T03:36:33.783Z,1.65
2022-11-16T03:39:37.675Z,1.77
2022-11-16T03:42:14.390Z,1.50
2022-11-16T03:44:47.978Z,1.27
2022-11-16T03:47:15.636Z,1.52
2022-11-16T03:49:47.670Z,1.50
2022-11-16T03:52:19.012Z,1.58
2022-11-16T03:54:48.292Z,2.45
2022-11-16T03:57:18.656Z,1.38
2022-11-16T03:59:52.849Z,1.15
2022-11-16T04:02:20.309Z,2.85
2022-11-16T04:05:08.457Z,1.95
2022-11-16T04:07:54.452Z,1.75
2022-11-16T04:10:41.755Z,1.58
2022-11-16T04:13:31.717Z,1.50
2022-11-16T04:16:18.835Z,1.77
2022-11-16T04:19:05.470Z,1.45
2022-11-16T04:22:01.033Z,1.67
2022-11-16T04:24:39.317Z,1.90
2022-11-16T04:27:31.818Z,0.82
2022-11-16T04:30:02.511Z,2.05
2022-11-16T04:32:52.570Z,1.15
2022-11-16T04:35:38.758Z,1.23
2022-11-16T04:38:08.550Z,0.90
2022-11-16T04:40:37.153Z,1.42
2022-11-16T04:43:06.010Z,1.08
2022-11-16T04:45:55.268Z,2.03
2022-11-16T04:48:26.801Z,1.27
2022-11-16T04:50:55.376Z,2.20
2022-11-16T04:53:27.920Z,1.92
2022-11-16T04:56:15.234Z,1.67
2022-11-16T04:58:43.194Z,1.20
2022-11-16T05:01:11.121Z,1.40
2022-11-16T05:03:38.714Z,1.50
2022-11-16T05:06:06.920Z,1.15
2022-11-16T05:08:35.227Z,1.90
2022-11-16T05:11:04.754Z,1.63
2022-11-16T05:13:33.013Z,1.77
2022-11-16T05:16:01.805Z,1.63
2022-11-16T05:18:29.208Z,1.33
2022-11-16T05:21:02.703Z,1.45
2022-11-16T05:23:56.012Z,1.08
2022-11-16T05:26:26.205Z,1.15
2022-11-16T05:28:54.975Z,1.73
2022-11-16T05:31:22.382Z,1.48
2022-11-16T05:33:50.002Z,1.63
2022-11-16T05:36:18.834Z,1.55
2022-11-16T05:38:46.259Z,0.57
2022-11-16T05:41:14.760Z,0.95
2022-11-16T05:43:43.651Z,1.05
2022-11-16T05:46:18.714Z,1.00
2022-11-16T05:48:46.722Z,1.10
2022-11-16T05:51:14.276Z,2.08
2022-11-16T05:53:42.581Z,1.77
2022-11-16T05:56:15.051Z,1.03
2022-11-16T05:58:44.494Z,2.88
2022-11-16T06:01:12.260Z,1.23
2022-11-16T06:03:39.834Z,1.80
2022-11-16T06:06:07.299Z,1.83
2022-11-16T06:08:36.873Z,1.40
2022-11-16T06:11:10.175Z,1.02
2022-11-16T06:13:38.568Z,1.27
2022-11-16T06:16:07.591Z,1.25
2022-11-16T06:18:42.662Z,2.85
2022-11-16T06:21:12.549Z,0.85
2022-11-16T06:23:41.393Z,1.35
2022-11-16T06:26:09.880Z,1.83
2022-11-16T06:28:38.307Z,1.65
2022-11-16T06:31:06.259Z,1.27
2022-11-16T06:33:38.030Z,2.58
2022-11-16T06:36:10.127Z,1.58
2022-11-16T18:28:11.224Z,5.93
2022-11-16T18:30:38.881Z,7.28
2022-11-16T18:33:08.421Z,8.00
2022-11-16T18:35:35.766Z,6.50
2022-11-16T18:38:03.718Z,6.07
2022-11-16T18:40:31.232Z,7.47
2022-11-16T18:42:58.660Z,7.85
2022-11-16T18:45:26.090Z,7.25
2022-11-16T18:47:53.518Z,8.43
2022-11-16T18:50:26.540Z,5.97
2022-11-16T18:52:54.333Z,7.00
2022-11-16T18:55:22.946Z,9.90
2022-11-16T18:57:50.307Z,6.60
2022-11-16T19:00:20.250Z,6.25
2022-11-16T19:02:47.635Z,8.05
2022-11-16T19:05:15.038Z,8.00
2022-11-16T19:07:42.430Z,8.75
2022-11-16T19:10:10.065Z,7.97
2022-11-16T19:12:37.593Z,7.72
2022-11-16T19:15:05.671Z,7.63
2022-11-16T19:17:33.057Z,6.85
2022-11-16T19:20:00.431Z,11.07
2022-11-16T19:22:27.840Z,17.45
2022-11-16T19:24:55.229Z,9.95
2022-11-16T19:27:22.583Z,8.05
2022-11-16T19:29:49.942Z,8.18
2022-11-16T19:32:17.320Z,11.02
2022-11-16T19:34:44.705Z,7.75
2022-11-16T19:37:12.106Z,7.53
2022-11-16T19:39:39.586Z,8.00
2022-11-16T19:42:07.016Z,5.85
2022-11-16T19:44:34.447Z,10.23
2022-11-16T19:47:01.996Z,7.22
2022-11-16T19:49:29.561Z,6.55
2022-11-16T19:51:56.921Z,7.25
2022-11-16T19:54:24.345Z,7.78
2022-11-16T19:56:55.066Z,6.38
2022-11-16T19:59:22.950Z,6.15
2022-11-16T20:01:50.351Z,7.13
2022-11-16T20:04:17.694Z,7.68
2022-11-16T20:06:45.171Z,10.32
2022-11-16T20:09:12.977Z,9.60
2022-11-16T20:11:41.729Z,7.63
2022-11-16T20:14:11.831Z,11.05
2022-11-16T20:16:42.430Z,8.90
2022-11-16T20:19:10.734Z,7.65
2022-11-16T20:21:41.682Z,8.00
2022-11-16T20:24:16.074Z,9.15
2022-11-16T20:26:47.821Z,7.57
2022-11-16T20:31:46.082Z,7.43
2022-11-16T20:34:16.790Z,7.63
2022-11-16T20:36:46.973Z,6.53
2022-11-16T20:39:17.328Z,7.53
2022-11-16T20:41:45.755Z,7.25
2022-11-16T20:44:22.163Z,6.28
2022-11-16T20:46:52.407Z,7.07
2022-11-16T20:49:20.301Z,7.80
2022-11-16T20:51:48.302Z,7.97
2022-11-16T20:54:15.762Z,13.43
2022-11-16T20:56:44.423Z,8.18
2022-11-16T20:59:11.837Z,6.40
2022-11-16T21:01:41.330Z,6.72
2022-11-16T21:04:10.759Z,7.82
2022-11-16T21:06:38.128Z,7.00
2022-11-16T21:09:06.087Z,6.85
2022-11-16T21:11:53.927Z,8.32
2022-11-16T21:14:22.599Z,6.93
2022-11-16T21:16:50.253Z,7.95
2022-11-16T21:19:17.673Z,7.18
2022-11-16T21:21:45.129Z,8.13
2022-11-16T21:24:12.565Z,8.13
2022-11-16T21:26:40.060Z,6.97
2022-11-16T21:29:08.501Z,7.90
2022-11-16T21:31:36.808Z,8.90
2022-11-16T21:34:05.751Z,7.72
2022-11-16T21:36:33.686Z,7.63
2022-11-16T21:39:01.133Z,10.27
2022-11-16T21:41:28.648Z,7.38
2022-11-16T21:43:56.074Z,8.57
2022-11-16T21:46:26.493Z,7.60
2022-11-16T21:48:56.463Z,6.80
2022-11-16T21:51:26.814Z,6.53
2022-11-16T21:53:54.828Z,12.02
2022-11-16T21:56:25.257Z,10.68
2022-11-16T21:58:54.035Z,7.93
2022-11-16T22:01:23.342Z,10.98
2022-11-16T22:04:10.839Z,9.27
2022-11-16T22:06:56.976Z,7.50
2022-11-16T22:09:24.412Z,6.70
2022-11-16T22:11:51.777Z,9.43
2022-11-16T22:14:19.157Z,9.63
2022-11-16T22:16:46.525Z,7.18
2022-11-16T22:19:13.973Z,8.85
2022-11-16T22:21:41.337Z,8.63
2022-11-16T22:24:08.741Z,9.93
2022-11-16T22:26:37.890Z,10.02
2022-11-16T22:29:05.298Z,5.97
2022-11-16T22:31:32.987Z,10.82
2022-11-16T22:34:00.336Z,9.30
2022-11-16T22:36:27.796Z,12.55
2022-11-16T22:38:56.989Z,8.48
2022-11-16T22:41:24.413Z,8.80
2022-11-16T22:43:51.840Z,11.20
2022-11-16T22:46:19.217Z,11.13
2022-11-16T22:48:47.834Z,9.02
2022-11-16T22:51:23.563Z,8.23
2022-11-16T22:54:03.400Z,8.35
2022-11-16T22:56:33.464Z,11.35
2022-11-16T22:59:02.378Z,10.77
2022-11-16T23:01:29.835Z,7.90
2022-11-16T23:03:58.688Z,10.68
2022-11-16T23:06:26.227Z,9.23
2022-11-16T23:08:54.291Z,8.63
2022-11-16T23:11:43.793Z,9.75
2022-11-16T23:14:40.673Z,10.85
2022-11-16T23:17:08.099Z,10.35
2022-11-16T23:19:54.293Z,9.05
2022-11-16T23:22:40.509Z,11.38
2022-11-16T23:25:30.302Z,10.10
2022-11-16T23:28:14.964Z,10.55
2022-11-16T23:30:42.749Z,10.98
2022-11-16T23:33:10.902Z,9.07
2022-11-16T23:35:38.402Z,10.63
2022-11-16T23:38:07.549Z,12.10
2022-11-16T23:40:38.759Z,9.13
2022-11-16T23:43:28.947Z,8.98
2022-11-16T23:45:56.384Z,9.85
2022-11-16T23:48:23.924Z,11.60
2022-11-16T23:50:51.343Z,12.25
2022-11-16T23:53:18.719Z,9.18
2022-11-16T23:55:47.510Z,8.77
2022-11-16T23:58:15.423Z,11.60
